createdAt,value
2022-10-31T00:01:31.311Z,19.40
2022-10-31T00:03:58.039Z,19.40
2022-10-31T00:06:25.376Z,19.40
2022-10-31T00:09:03.417Z,19.40
2022-10-31T00:14:24.744Z,19.30
2022-10-31T00:16:51.355Z,19.30
2022-10-31T00:19:18.055Z,19.30
2022-10-31T00:21:44.667Z,19.30
2022-10-31T00:24:11.846Z,19.30
2022-10-31T00:26:38.495Z,19.20
2022-10-31T00:29:05.129Z,19.20
2022-10-31T00:31:32.244Z,19.20
2022-10-31T00:34:00.502Z,19.20
2022-10-31T00:36:27.198Z,19.10
2022-10-31T00:38:53.822Z,19.10
2022-10-31T00:41:22.133Z,19.10
2022-10-31T00:43:48.773Z,19.00
2022-10-31T00:46:15.561Z,19.00
2022-10-31T00:48:42.815Z,19.00
2022-10-31T00:51:09.738Z,18.90
2022-10-31T00:53:36.726Z,18.90
2022-10-31T00:56:03.618Z,18.90
2022-10-31T00:58:30.328Z,18.80
2022-10-31T01:00:57.317Z,18.70
2022-10-31T01:03:30.102Z,18.70
2022-10-31T01:06:05.702Z,18.70
2022-10-31T01:08:33.698Z,18.60
2022-10-31T01:11:21.195Z,18.60
2022-10-31T01:13:48.487Z,18.60
2022-10-31T01:16:17.416Z,18.60
2022-10-31T01:18:44.605Z,18.50
2022-10-31T01:21:17.134Z,18.50
2022-10-31T01:23:43.988Z,18.40
2022-10-31T01:26:28.086Z,18.40
2022-10-31T01:28:56.883Z,18.40
2022-10-31T01:31:26.273Z,18.30
2022-10-31T01:33:53.359Z,18.30
2022-10-31T01:36:25.878Z,18.20
2022-10-31T01:38:56.182Z,18.20
2022-10-31T01:41:26.246Z,18.20
2022-10-31T01:44:03.812Z,18.10
2022-10-31T01:46:44.327Z,18.10
2022-10-31T01:49:19.433Z,18.10
2022-10-31T01:51:55.075Z,18.10
2022-10-31T01:54:26.787Z,18.00
2022-10-31T01:56:57.002Z,18.00
2022-10-31T01:59:28.808Z,18.00
2022-10-31T02:01:56.191Z,18.00
2022-10-31T02:04:24.888Z,17.90
2022-10-31T02:06:57.276Z,17.90
2022-10-31T02:09:24.756Z,17.90
2022-10-31T02:11:55.229Z,17.90
2022-10-31T02:14:27.296Z,17.80
2022-10-31T02:16:55.511Z,17.80
2022-10-31T02:19:35.180Z,17.80
2022-10-31T02:22:48.911Z,17.80
2022-10-31T02:25:49.289Z,17.80
2022-10-31T02:28:58.722Z,17.80
2022-10-31T02:31:47.306Z,17.70
2022-10-31T02:34:31.242Z,17.70
2022-10-31T02:37:12.907Z,17.70
2022-10-31T02:40:03.867Z,17.60
2022-10-31T02:43:27.423Z,17.60
2022-10-31T02:46:02.853Z,17.60
2022-10-31T02:48:36.096Z,17.60
2022-10-31T02:51:04.990Z,17.50
2022-10-31T02:53:36.168Z,17.50
2022-10-31T02:56:18.212Z,17.50
2022-10-31T02:59:02.721Z,17.50
2022-10-31T03:01:57.500Z,17.40
2022-10-31T03:05:13.673Z,17.40
2022-10-31T03:07:56.708Z,17.40
2022-10-31T03:10:47.646Z,17.40
2022-10-31T03:13:32.978Z,17.30
2022-10-31T03:16:31.669Z,17.30
2022-10-31T03:19:06.819Z,17.30
2022-10-31T03:21:46.845Z,17.30
2022-10-31T03:24:15.551Z,17.10
2022-10-31T03:26:48.568Z,17.20
2022-10-31T03:29:19.559Z,17.20
2022-10-31T03:32:10.278Z,17.20
2022-10-31T03:34:40.637Z,17.20
2022-10-31T03:37:12.284Z,17.20
2022-10-31T03:39:41.571Z,17.20
2022-10-31T03:42:15.688Z,17.20
2022-10-31T03:44:46.046Z,17.20
2022-10-31T03:47:13.089Z,17.20
2022-10-31T03:49:40.395Z,17.20
2022-10-31T03:52:29.359Z,17.10
2022-10-31T03:55:06.369Z,17.20
2022-10-31T03:57:44.360Z,17.10
2022-10-31T04:00:14.169Z,17.10
2022-10-31T04:02:56.528Z,17.10
2022-10-31T04:05:24.847Z,17.10
2022-10-31T04:07:56.488Z,17.10
2022-10-31T04:10:30.065Z,17.10
2022-10-31T04:13:06.213Z,17.00
2022-10-31T04:15:46.700Z,17.00
2022-10-31T04:18:13.516Z,17.00
2022-10-31T04:20:42.150Z,17.00
2022-10-31T04:23:21.063Z,16.90
2022-10-31T04:25:48.798Z,16.90
2022-10-31T04:28:17.106Z,16.90
2022-10-31T04:30:44.051Z,16.90
2022-10-31T04:33:11.333Z,16.90
2022-10-31T04:35:38.789Z,16.90
2022-10-31T04:38:05.508Z,16.80
2022-10-31T04:40:32.264Z,16.80
2022-10-31T04:43:37.286Z,16.80
2022-10-31T04:46:04.318Z,16.80
2022-10-31T04:48:31.380Z,16.80
2022-10-31T04:51:02.107Z,16.80
2022-10-31T04:53:29.515Z,16.70
2022-10-31T04:56:19.181Z,16.70
2022-10-31T04:58:51.892Z,16.70
2022-10-31T05:01:19.787Z,16.70
2022-10-31T05:03:49.188Z,16.70
2022-10-31T05:06:17.460Z,16.60
2022-10-31T05:08:44.080Z,16.60
2022-10-31T05:11:12.069Z,16.60
2022-10-31T05:13:39.522Z,16.60
2022-10-31T05:16:26.179Z,16.60
2022-10-31T05:18:55.845Z,16.50
2022-10-31T05:22:00.545Z,16.50
2022-10-31T05:24:27.229Z,16.50
2022-10-31T05:26:53.887Z,16.40
2022-10-31T05:29:20.505Z,16.50
2022-10-31T05:31:48.239Z,16.40
2022-10-31T05:34:35.183Z,16.40
2022-10-31T05:37:16.273Z,16.40
2022-10-31T05:39:42.913Z,16.40
2022-10-31T05:42:14.387Z,16.40
2022-10-31T05:44:41.927Z,16.40
2022-10-31T05:47:16.582Z,16.40
2022-10-31T05:50:02.017Z,16.40
2022-10-31T05:52:35.129Z,16.30
2022-10-31T05:55:09.504Z,16.30
2022-10-31T05:57:37.409Z,16.30
2022-10-31T06:00:05.911Z,16.30
2022-10-31T06:02:35.425Z,16.30
2022-10-31T06:05:19.888Z,16.30
2022-10-31T06:07:46.815Z,16.30
2022-10-31T06:10:13.549Z,16.20
2022-10-31T06:12:41.578Z,16.20
2022-10-31T06:15:24.340Z,16.20
2022-10-31T06:18:00.007Z,16.20
2022-10-31T06:20:27.833Z,16.20
2022-10-31T06:23:02.842Z,16.10
2022-10-31T06:25:31.984Z,16.10
2022-10-31T06:27:58.823Z,16.10
2022-10-31T06:30:33.573Z,16.10
2022-10-31T06:33:05.969Z,16.10
2022-10-31T06:35:35.701Z,16.10
2022-10-31T06:38:02.787Z,16.10
2022-10-31T06:40:42.179Z,16.10
2022-10-31T06:43:22.072Z,16.00
2022-10-31T06:45:50.255Z,16.10
2022-10-31T06:48:32.627Z,16.10
2022-10-31T06:51:28.688Z,16.00
2022-10-31T06:53:55.327Z,16.00
2022-10-31T06:56:23.323Z,16.10
2022-10-31T06:58:55.344Z,16.10
2022-10-31T07:01:42.013Z,16.10
2022-10-31T07:04:11.279Z,16.10
2022-10-31T07:06:38.427Z,16.10
2022-10-31T07:09:05.236Z,16.10
2022-10-31T07:11:31.884Z,16.10
2022-10-31T07:13:59.689Z,16.10
2022-10-31T07:16:27.394Z,16.20
2022-10-31T07:18:54.238Z,16.20
2022-10-31T07:21:21.483Z,16.20
2022-10-31T07:23:49.690Z,16.20
2022-10-31T07:26:43.216Z,16.30
2022-10-31T07:29:10.346Z,16.30
2022-10-31T07:31:37.949Z,16.40
2022-10-31T07:34:11.502Z,16.40
2022-10-31T07:36:56.941Z,16.40
2022-10-31T07:39:23.635Z,16.50
2022-10-31T07:41:50.399Z,16.50
2022-10-31T07:44:19.468Z,16.60
2022-10-31T07:47:12.368Z,16.60
2022-10-31T07:49:57.432Z,16.70
2022-10-31T07:52:42.818Z,16.70
2022-10-31T07:55:38.986Z,16.80
2022-10-31T07:58:09.963Z,16.80
2022-10-31T08:00:41.145Z,16.90
2022-10-31T08:03:11.346Z,16.90
2022-10-31T08:06:16.017Z,17.00
2022-10-31T08:09:05.651Z,17.00
2022-10-31T08:11:33.065Z,17.10
2022-10-31T08:14:01.510Z,17.10
2022-10-31T08:16:28.210Z,17.20
2022-10-31T08:19:01.425Z,17.20
2022-10-31T08:21:29.780Z,17.30
2022-10-31T08:23:57.593Z,17.30
2022-10-31T08:26:25.281Z,17.40
2022-10-31T08:28:55.486Z,17.40
2022-10-31T08:31:23.749Z,17.40
2022-10-31T08:33:50.383Z,17.50
2022-10-31T08:36:21.398Z,17.50
2022-10-31T08:39:08.629Z,17.50
2022-10-31T08:41:36.112Z,17.50
2022-10-31T08:44:03.459Z,17.50
2022-10-31T08:46:30.129Z,17.60
2022-10-31T08:48:56.774Z,17.60
2022-10-31T08:51:23.934Z,17.60
2022-10-31T08:53:53.786Z,17.60
2022-10-31T08:56:26.470Z,17.60
2022-10-31T08:58:54.546Z,17.70
2022-10-31T09:01:30.761Z,17.80
2022-10-31T09:03:58.236Z,17.90
2022-10-31T09:06:26.009Z,18.00
2022-10-31T09:08:53.971Z,18.00
2022-10-31T09:11:25.573Z,18.20
2022-10-31T09:14:10.537Z,18.30
2022-10-31T09:16:39.885Z,18.50
2022-10-31T09:19:12.819Z,18.60
2022-10-31T09:21:39.459Z,18.70
2022-10-31T09:24:06.890Z,18.90
2022-10-31T09:26:34.582Z,19.00
2022-10-31T09:29:10.314Z,19.20
2022-10-31T09:31:43.725Z,19.40
2022-10-31T09:34:40.665Z,19.60
2022-10-31T09:37:10.910Z,19.70
2022-10-31T09:39:37.755Z,19.90
2022-10-31T09:42:27.864Z,20.10
2022-10-31T09:45:06.343Z,20.20
2022-10-31T09:47:54.672Z,20.30
2022-10-31T09:50:48.466Z,20.40
2022-10-31T09:53:37.627Z,20.50
2022-10-31T09:56:14.957Z,20.70
2022-10-31T09:58:51.560Z,20.90
2022-10-31T10:01:26.862Z,21.00
2022-10-31T10:04:00.324Z,21.10
2022-10-31T10:06:53.361Z,21.10
2022-10-31T10:09:38.666Z,21.10
2022-10-31T10:12:50.103Z,21.00
2022-10-31T10:15:37.606Z,21.00
2022-10-31T10:18:33.667Z,20.90
2022-10-31T10:21:05.853Z,20.90
2022-10-31T10:23:51.527Z,20.80
2022-10-31T10:26:24.468Z,20.70
2022-10-31T10:28:58.479Z,20.60
2022-10-31T10:31:30.000Z,20.50
2022-10-31T10:34:12.663Z,20.40
2022-10-31T10:36:51.133Z,20.40
2022-10-31T10:39:30.680Z,20.40
2022-10-31T10:42:18.580Z,20.40
2022-10-31T10:45:07.687Z,20.40
2022-10-31T10:47:56.073Z,20.30
2022-10-31T10:50:34.657Z,20.30
2022-10-31T10:53:33.356Z,20.30
2022-10-31T10:56:06.153Z,20.30
2022-10-31T10:58:32.813Z,20.30
2022-10-31T11:00:59.595Z,20.20
2022-10-31T11:03:26.252Z,20.20
2022-10-31T11:05:59.343Z,20.20
2022-10-31T11:08:30.698Z,20.10
2022-10-31T11:10:59.203Z,20.10
2022-10-31T11:13:27.340Z,20.10
2022-10-31T11:15:56.586Z,20.00
2022-10-31T11:18:26.998Z,20.00
2022-10-31T11:20:56.351Z,20.00
2022-10-31T11:23:24.914Z,19.90
2022-10-31T11:25:57.567Z,19.90
2022-10-31T11:28:24.716Z,19.90
2022-10-31T11:31:00.427Z,19.90
2022-10-31T11:33:32.669Z,19.90
2022-10-31T11:36:00.923Z,20.00
2022-10-31T11:38:40.329Z,20.00
2022-10-31T11:41:06.917Z,20.00
2022-10-31T11:43:33.590Z,20.00
2022-10-31T11:46:00.869Z,19.90
2022-10-31T11:48:27.523Z,20.10
2022-10-31T11:50:57.562Z,20.10
2022-10-31T11:53:30.229Z,20.10
2022-10-31T11:56:13.886Z,20.20
2022-10-31T11:58:40.823Z,20.20
2022-10-31T12:01:24.922Z,20.20
2022-10-31T12:04:13.339Z,20.20
2022-10-31T12:06:42.971Z,20.20
2022-10-31T12:09:22.025Z,20.30
2022-10-31T12:12:10.357Z,20.30
2022-10-31T12:15:10.785Z,20.30
2022-10-31T12:17:41.817Z,20.30
2022-10-31T12:20:18.059Z,20.30
2022-10-31T12:23:08.731Z,20.30
2022-10-31T12:25:56.678Z,20.30
2022-10-31T12:28:29.405Z,20.40
2022-10-31T12:31:18.660Z,20.40
2022-10-31T12:33:54.380Z,20.40
2022-10-31T12:36:49.377Z,20.50
2022-10-31T12:39:34.568Z,20.50
2022-10-31T12:42:36.670Z,20.60
2022-10-31T12:45:21.382Z,20.60
2022-10-31T12:47:59.912Z,20.70
2022-10-31T12:50:59.301Z,20.70
2022-10-31T12:53:50.605Z,20.70
2022-10-31T12:56:19.995Z,20.70
2022-10-31T12:58:51.560Z,20.70
2022-10-31T13:01:25.124Z,20.80
2022-10-31T13:03:57.835Z,20.80
2022-10-31T13:06:31.444Z,20.80
2022-10-31T13:09:03.113Z,20.90
2022-10-31T13:11:47.522Z,20.80
2022-10-31T13:14:27.161Z,20.80
2022-10-31T13:16:55.822Z,20.90
2022-10-31T13:19:32.444Z,20.90
2022-10-31T13:22:13.016Z,20.80
2022-10-31T13:24:57.889Z,20.80
2022-10-31T13:27:29.065Z,20.80
2022-10-31T13:30:06.887Z,20.80
2022-10-31T13:32:56.048Z,20.80
2022-10-31T13:35:51.885Z,20.80
2022-10-31T13:38:39.853Z,20.80
2022-10-31T13:41:44.229Z,20.90
2022-10-31T13:44:26.838Z,20.90
2022-10-31T13:46:56.280Z,20.90
2022-10-31T13:49:31.846Z,20.90
2022-10-31T13:52:10.531Z,20.90
2022-10-31T13:54:48.666Z,20.90
2022-10-31T13:57:34.575Z,20.90
2022-10-31T14:00:21.542Z,21.00
2022-10-31T14:02:53.832Z,20.90
2022-10-31T14:05:36.194Z,20.90
2022-10-31T14:08:06.892Z,20.90
2022-10-31T14:10:39.113Z,20.90
2022-10-31T14:13:08.610Z,20.90
2022-10-31T14:15:44.401Z,20.90
2022-10-31T14:18:34.401Z,20.90
2022-10-31T14:21:01.201Z,20.90
2022-10-31T14:23:38.722Z,20.90
2022-10-31T14:26:26.541Z,20.90
2022-10-31T14:29:02.267Z,20.90
2022-10-31T14:31:38.192Z,20.90
2022-10-31T14:34:35.397Z,20.80
2022-10-31T14:37:19.476Z,20.90
2022-10-31T14:39:53.107Z,20.80
2022-10-31T14:42:53.335Z,20.80
2022-10-31T14:45:44.072Z,20.80
2022-10-31T14:48:39.072Z,20.80
2022-10-31T14:51:24.016Z,20.80
2022-10-31T14:53:53.618Z,20.80
2022-10-31T14:56:36.753Z,20.80
2022-10-31T14:59:08.583Z,20.70
2022-10-31T15:01:43.529Z,20.80
2022-10-31T15:04:24.238Z,20.80
2022-10-31T15:07:24.491Z,20.70
2022-10-31T15:10:04.282Z,20.70
2022-10-31T15:12:39.778Z,20.70
2022-10-31T15:15:26.814Z,20.70
2022-10-31T15:18:00.584Z,20.60
2022-10-31T15:20:30.558Z,20.60
2022-10-31T15:22:59.436Z,20.60
2022-10-31T15:25:33.031Z,20.50
2022-10-31T15:27:59.944Z,20.50
2022-10-31T15:30:29.160Z,20.50
2022-10-31T15:32:58.520Z,20.50
2022-10-31T15:35:31.123Z,20.50
2022-10-31T15:37:59.776Z,20.40
2022-10-31T15:40:28.836Z,20.40
2022-10-31T15:43:01.929Z,20.40
2022-10-31T15:45:31.026Z,20.40
2022-10-31T15:47:59.640Z,20.30
2022-10-31T15:50:34.548Z,20.30
2022-10-31T15:53:02.131Z,20.30
2022-10-31T15:55:33.183Z,20.30
2022-10-31T15:58:05.142Z,20.20
2022-10-31T16:00:38.270Z,20.20
2022-10-31T16:03:29.655Z,20.20
2022-10-31T16:05:59.207Z,20.10
2022-10-31T16:08:31.953Z,20.10
2022-10-31T16:11:01.910Z,20.00
2022-10-31T16:13:34.117Z,20.00
2022-10-31T16:16:32.799Z,20.00
2022-10-31T16:18:53.483Z,19.90
2022-10-31T16:21:33.288Z,19.90
2022-10-31T16:24:14.223Z,19.80
2022-10-31T16:26:40.978Z,19.80
2022-10-31T16:29:33.121Z,19.80
2022-10-31T16:31:59.759Z,19.70
2022-10-31T16:34:27.216Z,19.60
2022-10-31T16:36:54.158Z,19.70
2022-10-31T16:39:21.269Z,19.60
2022-10-31T16:41:51.882Z,19.60
2022-10-31T16:44:25.591Z,19.60
2022-10-31T16:47:16.304Z,19.50
2022-10-31T16:49:44.220Z,19.50
2022-10-31T16:52:10.958Z,19.50
2022-10-31T16:54:38.078Z,19.50
2022-10-31T16:57:06.431Z,19.40
2022-10-31T16:59:36.692Z,19.40
2022-10-31T17:02:04.570Z,19.40
2022-10-31T17:04:31.354Z,19.40
2022-10-31T17:06:58.012Z,19.40
2022-10-31T17:09:24.646Z,19.40
2022-10-31T17:11:52.456Z,19.40
2022-10-31T17:14:19.461Z,19.30
2022-10-31T17:16:46.093Z,19.30
2022-10-31T17:19:13.302Z,19.30
2022-10-31T17:21:40.616Z,19.30
2022-10-31T17:24:10.939Z,19.20
2022-10-31T17:26:37.561Z,19.20
2022-10-31T17:29:04.206Z,19.10
2022-10-31T17:31:33.036Z,19.10
2022-10-31T17:34:02.566Z,19.10
2022-10-31T17:36:31.435Z,19.10
2022-10-31T17:38:58.163Z,19.00
2022-10-31T17:41:24.788Z,19.00
2022-10-31T17:43:58.570Z,19.00
2022-10-31T17:46:25.632Z,19.00
2022-10-31T17:48:52.240Z,18.90
2022-10-31T17:51:18.881Z,18.90
2022-10-31T17:53:45.550Z,18.90
2022-10-31T17:56:12.249Z,18.90
2022-10-31T17:58:38.927Z,18.90
2022-10-31T18:01:11.212Z,18.90
2022-10-31T18:03:38.692Z,18.80
2022-10-31T18:06:06.120Z,18.80
2022-10-31T18:08:35.304Z,18.80
2022-10-31T18:11:09.878Z,18.80
2022-10-31T18:13:37.608Z,18.80
2022-10-31T18:16:12.453Z,18.80
2022-10-31T18:18:39.813Z,18.80
2022-10-31T18:21:06.583Z,18.80
2022-10-31T18:23:33.538Z,18.80
2022-10-31T18:26:00.157Z,18.70
2022-10-31T18:28:26.854Z,18.70
2022-10-31T18:30:53.510Z,18.70
2022-10-31T18:33:20.163Z,18.70
2022-10-31T18:35:46.783Z,18.70
2022-10-31T18:38:13.411Z,18.70
2022-10-31T18:40:40.021Z,18.70
2022-10-31T18:43:06.660Z,18.70
2022-10-31T18:45:45.915Z,18.70
2022-10-31T18:48:14.517Z,18.60
2022-10-31T18:50:41.428Z,18.60
2022-10-31T18:53:08.452Z,18.60
2022-10-31T18:55:43.780Z,18.60
2022-10-31T18:58:12.500Z,18.60
2022-10-31T19:00:39.103Z,18.60
2022-10-31T19:03:06.570Z,18.60
2022-10-31T19:05:33.228Z,18.60
2022-10-31T19:07:59.861Z,18.60
2022-10-31T19:10:26.527Z,18.50
2022-10-31T19:12:53.157Z,18.60
2022-10-31T19:15:19.805Z,18.60
2022-10-31T19:17:46.556Z,18.60
2022-10-31T19:20:14.064Z,18.60
2022-10-31T19:22:40.657Z,18.60
2022-10-31T19:25:10.471Z,18.60
2022-10-31T19:27:38.335Z,18.60
2022-10-31T19:30:06.549Z,18.60
2022-10-31T19:32:33.629Z,18.60
2022-10-31T19:35:00.366Z,18.60
2022-10-31T19:37:27.081Z,18.60
2022-10-31T19:39:53.756Z,18.60
2022-10-31T19:42:20.643Z,18.60
2022-10-31T19:44:47.232Z,18.60
2022-10-31T19:47:13.821Z,18.60
2022-10-31T19:49:40.407Z,18.60
2022-10-31T19:52:07.111Z,18.60
2022-10-31T19:54:34.234Z,18.60
2022-10-31T19:57:00.847Z,18.60
2022-10-31T19:59:27.532Z,18.60
2022-10-31T20:01:54.211Z,18.60
2022-10-31T20:04:20.914Z,18.60
2022-10-31T20:06:47.564Z,18.60
2022-10-31T20:09:15.075Z,18.60
2022-10-31T20:11:43.466Z,18.60
2022-10-31T20:14:13.382Z,18.60
2022-10-31T20:16:40.224Z,18.60
2022-10-31T20:19:06.857Z,18.60
2022-10-31T20:21:37.609Z,18.60
2022-10-31T20:24:07.057Z,18.50
2022-10-31T20:26:34.629Z,18.50
2022-10-31T20:29:02.096Z,18.50
2022-10-31T20:31:31.771Z,18.50
2022-10-31T20:33:58.562Z,18.50
2022-10-31T20:36:25.636Z,18.40
2022-10-31T20:38:53.214Z,18.40
2022-10-31T20:41:19.899Z,18.40
2022-10-31T20:43:46.835Z,18.40
2022-10-31T20:46:19.565Z,18.40
2022-10-31T20:48:46.793Z,18.40
2022-10-31T20:53:48.990Z,18.40
2022-10-31T20:56:18.219Z,18.40
2022-10-31T20:58:45.322Z,18.30
2022-10-31T21:01:15.364Z,18.30
2022-10-31T21:03:42.716Z,18.30
2022-10-31T21:06:10.144Z,18.30
2022-10-31T21:08:37.209Z,18.30
2022-10-31T21:11:09.905Z,18.30
2022-10-31T21:13:40.682Z,18.30
2022-10-31T21:16:19.992Z,18.30
2022-10-31T21:18:47.725Z,18.20
2022-10-31T21:21:20.138Z,18.20
2022-10-31T21:23:47.136Z,18.20
2022-10-31T21:26:22.481Z,18.20
2022-10-31T21:28:50.396Z,18.20
2022-10-31T21:31:18.099Z,18.20
2022-10-31T21:33:45.690Z,18.20
2022-10-31T21:36:13.209Z,18.20
2022-10-31T21:38:40.452Z,18.10
2022-10-31T21:41:12.425Z,18.10
2022-10-31T21:43:41.039Z,18.10
2022-10-31T21:46:22.523Z,18.10
2022-10-31T21:48:49.542Z,18.10
2022-10-31T21:51:17.363Z,18.10
2022-10-31T21:54:03.049Z,18.10
2022-10-31T21:56:30.298Z,18.00
2022-10-31T21:58:57.036Z,18.00
2022-10-31T22:01:25.724Z,18.00
2022-10-31T22:03:52.901Z,18.00
2022-10-31T22:06:20.235Z,18.00
2022-10-31T22:08:47.531Z,18.00
2022-10-31T22:11:17.147Z,18.00
2022-10-31T22:13:46.042Z,18.00
2022-10-31T22:16:15.485Z,18.10
2022-10-31T22:18:43.213Z,18.00
2022-10-31T22:21:12.500Z,18.00
2022-10-31T22:23:39.622Z,18.00
2022-10-31T22:26:14.298Z,18.00
2022-10-31T22:28:42.878Z,18.00
2022-10-31T22:33:45.217Z,18.00
2022-10-31T22:36:15.223Z,18.00
2022-10-31T22:38:42.687Z,18.00
2022-10-31T22:41:21.830Z,18.00
2022-10-31T22:43:49.619Z,18.00
2022-10-31T22:46:25.676Z,18.00
2022-10-31T22:48:59.128Z,18.00
2022-10-31T22:51:28.182Z,18.00
2022-10-31T22:53:58.703Z,18.00
2022-10-31T22:56:31.330Z,18.00
2022-10-31T22:58:58.947Z,18.00
2022-10-31T23:01:35.630Z,18.00
2022-10-31T23:04:02.786Z,18.00
2022-10-31T23:06:31.577Z,18.00
2022-10-31T23:09:00.823Z,18.00
2022-10-31T23:11:35.571Z,18.00
2022-10-31T23:14:10.697Z,18.00
2022-10-31T23:16:42.302Z,18.00
2022-10-31T23:19:10.747Z,18.00
2022-10-31T23:21:54.793Z,18.00
2022-10-31T23:24:26.969Z,18.00
2022-10-31T23:27:10.751Z,17.90
2022-10-31T23:29:47.700Z,17.90
2022-10-31T23:32:25.263Z,17.90
2022-10-31T23:34:57.180Z,17.90
2022-10-31T23:37:28.660Z,17.90
2022-10-31T23:39:56.486Z,17.90
2022-10-31T23:42:23.983Z,17.90
2022-10-31T23:44:51.074Z,17.90
2022-10-31T23:47:18.700Z,17.90
2022-10-31T23:49:45.526Z,17.90
2022-10-31T23:52:12.446Z,17.90
2022-10-31T23:54:39.638Z,17.90
2022-10-31T23:57:06.324Z,17.80
2022-10-31T23:59:33.237Z,17.80
